Time;durP1;ratioP1;P1;durP2;ratioP2;P2;SDS_P1;SDS_P2;PMS_P1;PMS_P2;Temp;Humidity;BMP_temperature;BMP_pressure;BME280_temperature;BME280_humidity;BME280_pressure;Samples;Min_cycle;Max_cycle;Signal;HPM_P1;HPM_P2
2021/09/15 00:01:59;;;;;;;571.65;385.55;;;;;;;;;;4364924;32;20083;-55
2021/09/15 00:04:28;;;;;;;566.92;387.10;;;;;;;;;;4366780;32;20406;-56
2021/09/15 00:06:56;;;;;;;562.20;384.48;;;;;;;;;;4366404;32;20047;-55
2021/09/15 00:09:24;;;;;;;564.28;382.92;;;;;;;;;;4365179;32;20040;-56
2021/09/15 00:11:54;;;;;;;567.45;377.58;;;;;;;;;;4365896;32;20048;-56
2021/09/15 00:14:23;;;;;;;556.35;373.27;;;;;;;;;;4367918;32;20074;-56
2021/09/15 00:16:51;;;;;;;560.67;366.60;;;;;;;;;;4369706;32;20066;-55
2021/09/15 00:19:19;;;;;;;558.40;373.42;;;;;;;;;;4368173;32;20043;-55
2021/09/15 00:21:48;;;;;;;555.17;371.75;;;;;;;;;;4368381;32;20501;-56
2021/09/15 00:24:16;;;;;;;548.83;374.17;;;;;;;;;;4367171;32;20630;-55
2021/09/15 00:26:44;;;;;;;534.85;363.33;;;;;;;;;;4368651;32;20629;-55
2021/09/15 00:29:13;;;;;;;531.13;359.20;;;;;;;;;;4367247;32;20146;-55
2021/09/15 00:31:41;;;;;;;535.92;354.92;;;;;;;;;;4367417;32;20877;-56
2021/09/15 00:34:09;;;;;;;529.35;351.80;;;;;;;;;;4360528;32;20442;-56
2021/09/15 00:36:38;;;;;;;523.67;354.77;;;;;;;;;;4367008;32;20048;-55
2021/09/15 00:39:06;;;;;;;523.62;350.10;;;;;;;;;;4368398;32;20679;-56
2021/09/15 00:41:35;;;;;;;516.50;355.40;;;;;;;;;;4368895;32;20082;-55
2021/09/15 00:44:10;;;;;;;519.95;351.50;;;;;;;;;;4368153;32;20054;-56
2021/09/15 00:46:40;;;;;;;528.40;351.75;;;;;;;;;;4367426;32;20379;-56
2021/09/15 00:49:09;;;;;;;530.47;351.77;;;;;;;;;;4369130;32;20113;-55
2021/09/15 00:51:40;;;;;;;525.03;349.95;;;;;;;;;;4369027;32;20129;-55
2021/09/15 00:54:09;;;;;;;527.60;351.30;;;;;;;;;;4368659;32;20638;-56
2021/09/15 00:56:40;;;;;;;509.75;347.25;;;;;;;;;;4368462;32;20063;-55
2021/09/15 00:59:10;;;;;;;508.73;344.83;;;;;;;;;;4368678;32;20137;-56
2021/09/15 01:01:38;;;;;;;528.75;355.92;;;;;;;;;;4368526;32;20253;-56
2021/09/15 01:04:08;;;;;;;524.12;351.60;;;;;;;;;;4368667;32;20039;-55
2021/09/15 01:06:40;;;;;;;521.12;353.17;;;;;;;;;;4367322;32;20098;-56
2021/09/15 01:09:09;;;;;;;535.55;347.40;;;;;;;;;;4368586;32;20047;-56
2021/09/15 01:11:38;;;;;;;531.05;339.35;;;;;;;;;;4368033;32;20085;-56
2021/09/15 01:14:09;;;;;;;532.50;342.92;;;;;;;;;;4368329;32;20501;-56
2021/09/15 01:17:00;;;;;;;534.53;354.63;;;;;;;;;;4367215;32;20137;-55
2021/09/15 01:19:32;;;;;;;528.67;349.70;;;;;;;;;;4367689;32;20071;-55
2021/09/15 01:22:02;;;;;;;512.70;350.80;;;;;;;;;;4368061;32;20075;-56
2021/09/15 01:24:32;;;;;;;528.30;352.90;;;;;;;;;;4368522;32;20145;-56
2021/09/15 01:27:03;;;;;;;527.05;360.00;;;;;;;;;;4368505;32;20137;-56
2021/09/15 01:29:35;;;;;;;522.25;349.45;;;;;;;;;;4368430;32;20105;-56
2021/09/15 01:32:06;;;;;;;523.97;345.60;;;;;;;;;;4366182;32;20035;-55
2021/09/15 01:34:38;;;;;;;526.22;360.63;;;;;;;;;;4368059;32;20105;-55
2021/09/15 01:37:12;;;;;;;507.00;350.08;;;;;;;;;;4367966;32;20071;-56
2021/09/15 01:39:42;;;;;;;528.45;355.40;;;;;;;;;;4368328;32;20047;-56
2021/09/15 01:42:10;;;;;;;526.83;343.70;;;;;;;;;;4367743;32;20051;-56
2021/09/15 01:44:40;;;;;;;520.05;351.62;;;;;;;;;;4367705;32;20075;-56
2021/09/15 01:47:09;;;;;;;525.10;342.25;;;;;;;;;;4367344;32;20092;-56
2021/09/15 01:49:38;;;;;;;528.95;345.67;;;;;;;;;;4366941;32;20086;-55
2021/09/15 01:52:07;;;;;;;527.53;348.30;;;;;;;;;;4367537;32;20074;-55
2021/09/15 01:54:36;;;;;;;519.62;347.58;;;;;;;;;;4367995;32;20059;-55
2021/09/15 01:57:05;;;;;;;522.17;354.33;;;;;;;;;;4367699;32;20484;-56
2021/09/15 01:59:34;;;;;;;520.97;352.50;;;;;;;;;;4367848;32;20051;-56
2021/09/15 02:02:04;;;;;;;522.83;351.10;;;;;;;;;;4366147;32;20047;-56
2021/09/15 02:04:35;;;;;;;519.88;348.87;;;;;;;;;;4365910;32;20044;-55
2021/09/15 02:07:04;;;;;;;520.30;347.98;;;;;;;;;;4367524;32;20633;-55
2021/09/15 02:09:34;;;;;;;523.33;344.23;;;;;;;;;;4366631;32;20110;-55
2021/09/15 02:12:05;;;;;;;523.37;342.55;;;;;;;;;;4367128;32;20047;-56
2021/09/15 02:14:34;;;;;;;522.08;342.87;;;;;;;;;;4367954;32;20051;-56
2021/09/15 02:17:02;;;;;;;517.28;334.58;;;;;;;;;;4365963;32;20137;-55
2021/09/15 02:19:33;;;;;;;516.92;340.65;;;;;;;;;;4368044;32;20074;-56
2021/09/15 02:22:03;;;;;;;521.42;343.37;;;;;;;;;;4367153;32;20912;-55
2021/09/15 02:24:34;;;;;;;513.92;341.83;;;;;;;;;;4366821;32;20101;-55
2021/09/15 02:27:05;;;;;;;518.78;340.30;;;;;;;;;;4364465;32;20075;-55
2021/09/15 02:29:35;;;;;;;504.08;331.00;;;;;;;;;;4367387;32;20078;-56
2021/09/15 02:32:06;;;;;;;509.40;332.70;;;;;;;;;;4365426;32;20109;-55
2021/09/15 02:34:36;;;;;;;502.62;336.60;;;;;;;;;;4366965;32;20101;-56
2021/09/15 02:37:06;;;;;;;496.35;327.05;;;;;;;;;;4366118;32;20063;-55
2021/09/15 02:39:35;;;;;;;502.23;341.80;;;;;;;;;;4367137;32;20059;-55
2021/09/15 02:42:05;;;;;;;513.20;342.70;;;;;;;;;;4367422;32;20044;-55
2021/09/15 02:44:35;;;;;;;503.48;335.02;;;;;;;;;;4367384;32;20101;-55
2021/09/15 02:47:05;;;;;;;510.10;332.58;;;;;;;;;;4366213;32;20063;-56
2021/09/15 02:49:34;;;;;;;522.97;343.20;;;;;;;;;;4367141;32;20105;-56
2021/09/15 02:52:03;;;;;;;509.20;334.90;;;;;;;;;;4365466;32;20086;-56
2021/09/15 02:54:33;;;;;;;514.15;332.45;;;;;;;;;;4367304;32;20102;-56
2021/09/15 02:57:03;;;;;;;513.70;325.30;;;;;;;;;;4366126;32;20106;-55
2021/09/15 02:59:34;;;;;;;511.98;327.27;;;;;;;;;;4367113;32;20124;-55
2021/09/15 03:02:04;;;;;;;511.70;336.45;;;;;;;;;;4366970;32;20512;-55
2021/09/15 03:04:34;;;;;;;516.45;331.15;;;;;;;;;;4366434;32;20078;-55
2021/09/15 03:07:04;;;;;;;518.33;339.40;;;;;;;;;;4367101;32;20047;-55
2021/09/15 03:09:32;;;;;;;498.40;336.30;;;;;;;;;;4367182;32;20083;-55
2021/09/15 03:12:01;;;;;;;485.45;330.67;;;;;;;;;;4366759;32;20877;-56
2021/09/15 03:14:30;;;;;;;499.60;334.48;;;;;;;;;;4366635;32;20102;-56
2021/09/15 03:16:58;;;;;;;495.95;337.05;;;;;;;;;;4365123;32;20058;-55
2021/09/15 03:19:27;;;;;;;491.00;334.45;;;;;;;;;;4366807;32;20039;-55
2021/09/15 03:21:55;;;;;;;491.23;334.12;;;;;;;;;;4364573;32;20039;-56
2021/09/15 03:24:24;;;;;;;501.25;330.92;;;;;;;;;;4366706;32;20111;-56
2021/09/15 03:26:53;;;;;;;500.67;325.35;;;;;;;;;;4364665;32;20091;-55
2021/09/15 03:29:22;;;;;;;491.58;329.00;;;;;;;;;;4367330;32;20051;-55
2021/09/15 03:31:50;;;;;;;480.52;319.05;;;;;;;;;;4366435;32;20161;-56
2021/09/15 03:34:19;;;;;;;491.08;324.12;;;;;;;;;;4366502;32;20063;-55
2021/09/15 03:36:47;;;;;;;497.37;327.35;;;;;;;;;;4365860;32;21882;-54
2021/09/15 03:39:16;;;;;;;485.20;316.75;;;;;;;;;;4365673;32;20066;-56
2021/09/15 03:41:45;;;;;;;485.58;324.52;;;;;;;;;;4365687;32;20091;-55
2021/09/15 03:44:13;;;;;;;483.15;325.05;;;;;;;;;;4366986;32;20152;-55
2021/09/15 03:46:41;;;;;;;490.33;330.12;;;;;;;;;;4365531;32;20109;-56
2021/09/15 03:49:10;;;;;;;494.88;331.73;;;;;;;;;;4366258;32;20505;-56
2021/09/15 03:51:39;;;;;;;493.35;329.35;;;;;;;;;;4366406;32;20160;-55
2021/09/15 03:54:07;;;;;;;491.62;326.90;;;;;;;;;;4364486;32;20089;-55
2021/09/15 03:56:36;;;;;;;494.50;324.08;;;;;;;;;;4366740;32;20043;-55
2021/09/15 03:59:05;;;;;;;488.58;322.90;;;;;;;;;;4365764;32;20379;-55
2021/09/15 04:01:33;;;;;;;487.80;332.73;;;;;;;;;;4366937;32;20730;-56
2021/09/15 04:04:02;;;;;;;498.48;340.73;;;;;;;;;;4365547;32;20040;-55
2021/09/15 04:06:30;;;;;;;487.10;324.80;;;;;;;;;;4365872;32;20124;-55
2021/09/15 04:08:58;;;;;;;483.52;321.40;;;;;;;;;;4364501;32;20157;-55
2021/09/15 04:11:27;;;;;;;478.48;322.83;;;;;;;;;;4365638;32;20071;-56
2021/09/15 04:13:55;;;;;;;473.98;311.42;;;;;;;;;;4364804;32;20097;-53
2021/09/15 04:16:24;;;;;;;457.62;302.15;;;;;;;;;;4364439;32;20085;-56
2021/09/15 04:18:52;;;;;;;475.55;310.85;;;;;;;;;;4365823;32;20140;-55
2021/09/15 04:21:21;;;;;;;478.33;302.70;;;;;;;;;;4366112;32;20073;-55
2021/09/15 04:31:56;;;;;;;474.05;317.60;;;;;;;;;;4366022;32;20180;-55
2021/09/15 04:34:25;;;;;;;465.40;311.48;;;;;;;;;;4365069;32;20094;-56
2021/09/15 04:36:54;;;;;;;474.27;321.42;;;;;;;;;;4365634;32;20126;-55
2021/09/15 04:39:22;;;;;;;473.23;324.00;;;;;;;;;;4366884;32;20933;-55
2021/09/15 04:41:50;;;;;;;464.77;311.42;;;;;;;;;;4365406;32;20055;-55
2021/09/15 04:44:19;;;;;;;466.42;309.05;;;;;;;;;;4363230;32;20044;-55
2021/09/15 04:46:47;;;;;;;457.33;312.85;;;;;;;;;;4365777;32;20071;-55
2021/09/15 04:49:16;;;;;;;456.15;314.45;;;;;;;;;;4366171;32;20066;-55
2021/09/15 04:51:45;;;;;;;467.17;313.33;;;;;;;;;;4364646;32;20114;-55
2021/09/15 04:54:13;;;;;;;455.02;303.27;;;;;;;;;;4365883;32;20090;-55
2021/09/15 04:56:41;;;;;;;459.52;311.30;;;;;;;;;;4365511;32;20078;-56
2021/09/15 04:59:10;;;;;;;458.92;313.67;;;;;;;;;;4368439;32;20100;-55
2021/09/15 05:01:39;;;;;;;448.95;309.62;;;;;;;;;;4368743;32;20071;-56
2021/09/15 05:04:07;;;;;;;448.02;300.40;;;;;;;;;;4368818;32;20043;-55
2021/09/15 05:06:37;;;;;;;444.77;302.58;;;;;;;;;;4369115;32;20066;-56
2021/09/15 05:09:06;;;;;;;467.10;320.42;;;;;;;;;;4366517;32;20070;-55
2021/09/15 05:11:35;;;;;;;470.58;317.00;;;;;;;;;;4368971;32;20088;-56
2021/09/15 05:14:04;;;;;;;461.20;313.48;;;;;;;;;;4368537;32;20094;-55
2021/09/15 05:16:32;;;;;;;447.42;307.73;;;;;;;;;;4368058;32;20137;-55
2021/09/15 05:19:02;;;;;;;459.75;323.30;;;;;;;;;;4368033;32;20036;-55
2021/09/15 05:21:33;;;;;;;455.75;323.13;;;;;;;;;;4367067;32;20091;-55
2021/09/15 05:24:02;;;;;;;447.27;313.77;;;;;;;;;;4361952;32;20710;-55
2021/09/15 05:26:31;;;;;;;449.10;312.40;;;;;;;;;;4362926;32;20166;-55
2021/09/15 05:28:59;;;;;;;451.45;317.13;;;;;;;;;;4365076;32;20090;-55
2021/09/15 05:31:27;;;;;;;422.13;302.80;;;;;;;;;;4361890;32;20437;-55
2021/09/15 05:33:56;;;;;;;415.33;303.90;;;;;;;;;;4358750;32;20939;-56
2021/09/15 05:36:25;;;;;;;424.90;314.42;;;;;;;;;;4363467;32;20979;-56
2021/09/15 05:38:53;;;;;;;422.17;306.10;;;;;;;;;;4365015;32;20085;-55
2021/09/15 05:41:22;;;;;;;439.63;305.60;;;;;;;;;;4368848;32;20150;-56
2021/09/15 05:43:50;;;;;;;425.02;298.52;;;;;;;;;;4363547;32;20063;-55
2021/09/15 05:46:19;;;;;;;433.98;305.50;;;;;;;;;;4353096;32;20096;-55
2021/09/15 05:48:48;;;;;;;446.00;329.27;;;;;;;;;;4353354;32;20886;-55
2021/09/15 05:51:18;;;;;;;467.55;322.05;;;;;;;;;;4354769;32;20048;-55
2021/09/15 05:53:46;;;;;;;454.90;311.05;;;;;;;;;;4361987;32;20090;-55
2021/09/15 05:56:16;;;;;;;447.20;321.70;;;;;;;;;;4363406;32;20116;-55
2021/09/15 05:58:44;;;;;;;447.48;318.00;;;;;;;;;;4367322;32;20144;-56
2021/09/15 06:01:12;;;;;;;451.13;323.30;;;;;;;;;;4364447;32;20117;-55
2021/09/15 06:03:41;;;;;;;438.05;309.33;;;;;;;;;;4362958;32;20093;-56
2021/09/15 06:06:11;;;;;;;431.20;301.80;;;;;;;;;;4363840;32;20065;-56
2021/09/15 06:08:39;;;;;;;429.65;298.23;;;;;;;;;;4363715;32;20055;-55
2021/09/15 06:11:08;;;;;;;426.80;303.95;;;;;;;;;;4365620;32;20070;-55
2021/09/15 06:13:38;;;;;;;420.42;280.77;;;;;;;;;;4365143;32;20040;-55
2021/09/15 06:16:06;;;;;;;424.00;285.45;;;;;;;;;;4358555;32;20073;-55
2021/09/15 06:18:36;;;;;;;428.17;289.65;;;;;;;;;;4366953;32;20524;-55
2021/09/15 06:21:05;;;;;;;435.70;277.80;;;;;;;;;;4366393;32;20074;-55
2021/09/15 06:23:34;;;;;;;429.77;299.73;;;;;;;;;;4365974;32;20140;-55
2021/09/15 06:26:04;;;;;;;441.10;313.73;;;;;;;;;;4366047;32;20132;-55
2021/09/15 06:28:33;;;;;;;447.42;303.50;;;;;;;;;;4367531;32;20051;-55
2021/09/15 06:31:01;;;;;;;448.50;306.80;;;;;;;;;;4367128;32;20509;-55
2021/09/15 06:33:30;;;;;;;439.58;287.55;;;;;;;;;;4367703;32;20039;-55
2021/09/15 06:35:58;;;;;;;461.20;306.20;;;;;;;;;;4367124;32;20078;-55
2021/09/15 06:38:26;;;;;;;457.65;306.80;;;;;;;;;;4366704;32;20043;-55
2021/09/15 06:40:55;;;;;;;464.15;313.33;;;;;;;;;;4367422;32;20178;-55
2021/09/15 06:43:23;;;;;;;454.50;294.60;;;;;;;;;;4366156;32;20044;-55
2021/09/15 06:45:52;;;;;;;451.17;306.38;;;;;;;;;;4364678;32;20055;-55
2021/09/15 06:48:20;;;;;;;441.90;285.00;;;;;;;;;;4366598;32;20498;-55
2021/09/15 06:50:49;;;;;;;442.17;292.48;;;;;;;;;;4366356;32;20055;-55
2021/09/15 06:53:18;;;;;;;431.25;291.08;;;;;;;;;;4367206;32;20094;-55
2021/09/15 06:55:46;;;;;;;437.00;290.48;;;;;;;;;;4367076;32;20081;-55
2021/09/15 06:58:14;;;;;;;538.97;331.58;;;;;;;;;;4366443;32;20099;-56
2021/09/15 07:00:43;;;;;;;535.78;333.70;;;;;;;;;;4367128;32;20055;-56
2021/09/15 07:03:12;;;;;;;508.52;298.40;;;;;;;;;;4367522;32;20070;-55
2021/09/15 07:05:40;;;;;;;486.62;277.98;;;;;;;;;;4367464;32;20055;-55
2021/09/15 07:08:09;;;;;;;507.67;296.27;;;;;;;;;;4366381;32;20138;-55
2021/09/15 07:10:39;;;;;;;509.60;302.40;;;;;;;;;;4366300;32;20075;-56
2021/09/15 07:13:08;;;;;;;510.70;303.30;;;;;;;;;;4366863;32;20095;-56
2021/09/15 07:15:36;;;;;;;559.42;334.30;;;;;;;;;;4365585;32;20062;-55
2021/09/15 07:18:06;;;;;;;557.60;335.73;;;;;;;;;;4365487;32;20156;-55
2021/09/15 07:20:35;;;;;;;566.17;338.95;;;;;;;;;;4364494;32;20475;-56
2021/09/15 07:23:03;;;;;;;560.13;338.12;;;;;;;;;;4366041;32;20063;-56
2021/09/15 07:25:32;;;;;;;562.83;338.30;;;;;;;;;;4365436;32;20039;-56
2021/09/15 07:28:01;;;;;;;507.48;324.88;;;;;;;;;;4366236;32;20097;-56
2021/09/15 07:30:29;;;;;;;510.65;326.48;;;;;;;;;;4366096;32;20602;-56
2021/09/15 07:32:58;;;;;;;510.05;328.52;;;;;;;;;;4365147;32;20074;-56
2021/09/15 07:35:26;;;;;;;514.63;334.95;;;;;;;;;;4366141;32;20065;-56
2021/09/15 07:37:54;;;;;;;512.28;337.42;;;;;;;;;;4366719;32;20120;-56
2021/09/15 07:40:23;;;;;;;560.65;327.38;;;;;;;;;;4371351;32;20073;-56
2021/09/15 07:42:51;;;;;;;538.33;311.92;;;;;;;;;;4357664;32;21030;-56
2021/09/15 07:45:19;;;;;;;570.42;323.08;;;;;;;;;;4369170;32;20059;-56
2021/09/15 07:47:48;;;;;;;571.08;318.45;;;;;;;;;;4369294;32;20103;-56
2021/09/15 07:50:16;;;;;;;567.40;326.88;;;;;;;;;;4368569;32;20123;-56
2021/09/15 07:52:44;;;;;;;606.95;356.48;;;;;;;;;;4363679;32;20103;-56
2021/09/15 07:55:12;;;;;;;670.67;453.05;;;;;;;;;;4358337;32;20161;-56
2021/09/15 07:57:42;;;;;;;701.58;473.08;;;;;;;;;;4358863;32;20091;-55
2021/09/15 08:00:11;;;;;;;717.87;504.98;;;;;;;;;;4358291;32;20424;-55
2021/09/15 08:02:39;;;;;;;668.15;482.00;;;;;;;;;;4367230;32;20051;-56
2021/09/15 08:05:08;;;;;;;670.35;469.08;;;;;;;;;;4365581;32;20054;-55
2021/09/15 08:07:36;;;;;;;672.45;463.25;;;;;;;;;;4363859;32;20055;-56
2021/09/15 08:10:05;;;;;;;681.58;483.23;;;;;;;;;;4364714;32;20126;-56
2021/09/15 08:12:34;;;;;;;675.15;522.90;;;;;;;;;;4367907;32;20083;-56
2021/09/15 08:15:02;;;;;;;637.25;561.42;;;;;;;;;;4367985;32;20633;-57
2021/09/15 08:17:30;;;;;;;706.05;639.50;;;;;;;;;;4368106;32;20153;-56
2021/09/15 08:19:59;;;;;;;670.05;597.47;;;;;;;;;;4369671;32;20070;-56
2021/09/15 08:22:27;;;;;;;587.45;522.33;;;;;;;;;;4366196;32;20097;-56
2021/09/15 08:24:55;;;;;;;553.15;495.88;;;;;;;;;;4358686;32;20090;-55
2021/09/15 08:27:24;;;;;;;525.05;471.48;;;;;;;;;;4356993;32;20070;-56
2021/09/15 08:29:52;;;;;;;39.25;36.40;;;;;;;;;;4356622;32;20085;-55
2021/09/15 08:32:20;;;;;;;4.55;2.30;;;;;;;;;;4360938;32;20481;-54
2021/09/15 08:34:49;;;;;;;2.83;0.70;;;;;;;;;;4368596;32;20141;-55
2021/09/15 08:37:17;;;;;;;5.35;0.80;;;;;;;;;;4371810;32;20043;-55
2021/09/15 08:39:45;;;;;;;11.75;1.00;;;;;;;;;;4371567;32;20455;-55
2021/09/15 08:42:15;;;;;;;6.55;0.98;;;;;;;;;;4369830;32;20576;-55
2021/09/15 08:44:44;;;;;;;4.00;0.80;;;;;;;;;;4369249;32;20124;-55
2021/09/15 08:47:12;;;;;;;1.80;0.55;;;;;;;;;;4372455;32;20096;-55
2021/09/15 08:49:41;;;;;;;5.00;0.90;;;;;;;;;;4369477;32;20086;-55
2021/09/15 08:52:14;;;;;;;3.50;0.47;;;;;;;;;;4367377;32;20154;-55
2021/09/15 08:54:42;;;;;;;4.95;0.90;;;;;;;;;;4366720;32;20082;-55
2021/09/15 08:57:10;;;;;;;13.10;0.73;;;;;;;;;;4365567;32;20055;-54
2021/09/15 08:59:39;;;;;;;4.55;0.60;;;;;;;;;;4369299;32;20043;-55
2021/09/15 09:02:08;;;;;;;4.40;0.70;;;;;;;;;;4371371;32;20610;-55
2021/09/15 09:04:57;;;;;;;2.95;0.80;;;;;;;;;;4370543;32;20066;-54
2021/09/15 09:07:26;;;;;;;3.42;0.62;;;;;;;;;;4372138;32;20101;-55
2021/09/15 09:09:55;;;;;;;2.75;0.80;;;;;;;;;;4370050;32;20074;-55
2021/09/15 09:12:26;;;;;;;2.40;0.52;;;;;;;;;;4372698;32;20075;-54
2021/09/15 09:15:13;;;;;;;1.90;0.50;;;;;;;;;;4370196;32;20087;-54
2021/09/15 09:17:41;;;;;;;9.90;0.88;;;;;;;;;;4368779;32;20071;-55
2021/09/15 09:20:13;;;;;;;2.70;0.73;;;;;;;;;;4368253;32;20102;-55
2021/09/15 09:22:57;;;;;;;3.95;0.60;;;;;;;;;;4366647;32;20116;-55
2021/09/15 09:25:27;;;;;;;7.32;1.00;;;;;;;;;;4368510;32;20042;-55
2021/09/15 09:27:55;;;;;;;2.70;0.70;;;;;;;;;;4372074;32;20168;-55
2021/09/15 09:30:50;;;;;;;4.10;0.73;;;;;;;;;;4369364;32;20113;-55
2021/09/15 09:33:19;;;;;;;4.20;0.80;;;;;;;;;;4364813;32;20125;-55
2021/09/15 09:35:49;;;;;;;3.25;0.57;;;;;;;;;;4367418;32;20055;-55
2021/09/15 09:38:37;;;;;;;4.75;0.60;;;;;;;;;;4366417;32;20117;-55
2021/09/15 09:41:07;;;;;;;3.25;0.85;;;;;;;;;;4367519;32;20162;-54
2021/09/15 09:43:37;;;;;;;1.42;0.50;;;;;;;;;;4367756;32;20121;-54
2021/09/15 09:46:06;;;;;;;10.82;0.88;;;;;;;;;;4366200;32;20189;-55
2021/09/15 09:48:36;;;;;;;7.82;0.95;;;;;;;;;;4367599;32;20047;-54
2021/09/15 09:51:24;;;;;;;4.78;0.52;;;;;;;;;;4367871;32;20043;-54
2021/09/15 09:54:09;;;;;;;3.53;0.60;;;;;;;;;;4362139;32;20077;-54
2021/09/15 09:56:39;;;;;;;2.00;0.60;;;;;;;;;;4368347;32;20467;-55
2021/09/15 09:59:08;;;;;;;2.12;0.60;;;;;;;;;;4367839;32;20073;-55
2021/09/15 10:01:39;;;;;;;1.65;0.50;;;;;;;;;;4365973;32;20095;-55
2021/09/15 10:04:08;;;;;;;4.60;0.77;;;;;;;;;;4367554;32;20109;-55
2021/09/15 10:06:39;;;;;;;3.00;0.90;;;;;;;;;;4367703;32;20700;-54
2021/09/15 10:09:08;;;;;;;4.72;0.75;;;;;;;;;;4367976;32;20067;-55
2021/09/15 10:11:37;;;;;;;5.62;0.60;;;;;;;;;;4367722;32;20106;-55
2021/09/15 10:14:07;;;;;;;2.55;0.60;;;;;;;;;;4366100;32;20136;-54
2021/09/15 10:16:41;;;;;;;3.62;0.65;;;;;;;;;;4367186;32;20043;-55
2021/09/15 10:19:10;;;;;;;2.20;0.55;;;;;;;;;;4366307;32;20091;-55
2021/09/15 10:21:39;;;;;;;2.42;0.80;;;;;;;;;;4366964;32;20120;-55
2021/09/15 10:24:07;;;;;;;2.55;0.70;;;;;;;;;;4365784;32;20066;-55
2021/09/15 10:26:40;;;;;;;2.55;0.60;;;;;;;;;;4367666;32;20090;-55
2021/09/15 10:29:13;;;;;;;3.65;0.70;;;;;;;;;;4366470;32;20657;-56
2021/09/15 10:31:51;;;;;;;4.03;0.65;;;;;;;;;;4366913;32;20458;-55
2021/09/15 10:34:38;;;;;;;2.85;0.73;;;;;;;;;;4367055;32;20086;-55
2021/09/15 10:37:12;;;;;;;2.92;0.90;;;;;;;;;;4365878;32;20373;-55
2021/09/15 10:39:59;;;;;;;3.20;1.00;;;;;;;;;;4367743;32;20078;-55
2021/09/15 10:42:46;;;;;;;2.15;0.60;;;;;;;;;;4366610;32;20109;-55
2021/09/15 10:45:15;;;;;;;2.47;0.70;;;;;;;;;;4366616;32;20352;-55
2021/09/15 10:47:47;;;;;;;28.10;1.83;;;;;;;;;;4365741;32;20070;-55
2021/09/15 10:50:28;;;;;;;8.60;0.70;;;;;;;;;;4366252;32;20079;-55
2021/09/15 10:53:02;;;;;;;12.05;0.93;;;;;;;;;;4362235;32;20102;-54
2021/09/15 10:55:40;;;;;;;12.43;1.20;;;;;;;;;;4358319;32;20153;-54
2021/09/15 10:58:12;;;;;;;3.47;0.80;;;;;;;;;;4364633;32;20100;-55
2021/09/15 11:00:51;;;;;;;1.27;0.50;;;;;;;;;;4366812;32;20063;-55
2021/09/15 11:03:22;;;;;;;1.73;0.50;;;;;;;;;;4366824;32;20071;-54
2021/09/15 11:05:51;;;;;;;4.07;0.68;;;;;;;;;;4366663;32;20074;-54
2021/09/15 11:08:20;;;;;;;2.85;0.60;;;;;;;;;;4365666;32;20462;-54
2021/09/15 11:10:49;;;;;;;3.95;0.60;;;;;;;;;;4366146;32;20895;-54
2021/09/15 11:13:38;;;;;;;3.92;0.65;;;;;;;;;;4366607;32;20067;-54
2021/09/15 11:16:26;;;;;;;1.92;0.70;;;;;;;;;;4353393;32;20098;-54
2021/09/15 11:19:03;;;;;;;3.03;0.65;;;;;;;;;;4365799;32;20101;-54
2021/09/15 11:21:32;;;;;;;3.22;0.60;;;;;;;;;;4366751;32;20043;-54
2021/09/15 11:24:09;;;;;;;56.70;3.20;;;;;;;;;;4364384;32;22096;-54
2021/09/15 11:26:39;;;;;;;1.30;0.50;;;;;;;;;;4366251;32;20169;-55
2021/09/15 11:29:07;;;;;;;3.25;0.80;;;;;;;;;;4366616;32;20110;-55
2021/09/15 11:31:36;;;;;;;2.42;0.50;;;;;;;;;;4367498;32;20185;-55
2021/09/15 11:34:15;;;;;;;26.25;1.85;;;;;;;;;;4368594;32;20381;-55
2021/09/15 11:36:50;;;;;;;3.83;0.75;;;;;;;;;;4370138;32;20096;-55
2021/09/15 11:39:22;;;;;;;1.52;0.40;;;;;;;;;;4369902;32;20074;-55
2021/09/15 11:41:51;;;;;;;1.30;0.60;;;;;;;;;;4365126;32;20474;-55
2021/09/15 11:44:24;;;;;;;8.15;0.50;;;;;;;;;;4363863;32;20150;-55
2021/09/15 11:46:53;;;;;;;3.22;0.60;;;;;;;;;;4364787;32;20098;-55
2021/09/15 11:49:31;;;;;;;8.15;0.82;;;;;;;;;;4364889;32;20636;-55
2021/09/15 11:52:03;;;;;;;2.00;0.65;;;;;;;;;;4362901;32;20486;-54
2021/09/15 11:54:31;;;;;;;2.83;0.40;;;;;;;;;;4363585;32;20065;-55
2021/09/15 11:57:09;;;;;;;14.18;1.10;;;;;;;;;;4366725;32;20098;-55
2021/09/15 11:59:38;;;;;;;1.92;0.70;;;;;;;;;;4362432;32;20083;-55
2021/09/15 12:02:09;;;;;;;3.12;0.50;;;;;;;;;;4365172;32;20113;-55
2021/09/15 12:04:40;;;;;;;28.75;1.87;;;;;;;;;;4362386;32;20099;-54
2021/09/15 12:07:08;;;;;;;15.65;1.15;;;;;;;;;;4360568;32;20040;-55
2021/09/15 12:09:38;;;;;;;2.83;0.50;;;;;;;;;;4362441;32;20129;-55
2021/09/15 12:12:09;;;;;;;2.30;0.60;;;;;;;;;;4364429;32;20113;-55
2021/09/15 12:14:38;;;;;;;4.32;0.70;;;;;;;;;;4363220;32;20205;-55
2021/09/15 12:17:07;;;;;;;3.05;0.47;;;;;;;;;;4362943;32;20164;-55
2021/09/15 12:19:36;;;;;;;4.43;0.60;;;;;;;;;;4366252;32;20100;-55
2021/09/15 12:22:05;;;;;;;7.43;1.02;;;;;;;;;;4364049;32;20066;-55
2021/09/15 12:24:33;;;;;;;3.42;0.50;;;;;;;;;;4363313;32;20040;-54
2021/09/15 12:27:14;;;;;;;1.90;0.40;;;;;;;;;;4364278;32;20221;-54
2021/09/15 12:29:43;;;;;;;2.60;0.60;;;;;;;;;;4361598;32;20496;-55
2021/09/15 12:32:12;;;;;;;3.70;0.52;;;;;;;;;;4362861;32;20069;-54
2021/09/15 12:34:43;;;;;;;25.23;2.40;;;;;;;;;;4363056;32;20504;-54
2021/09/15 12:37:19;;;;;;;23.27;2.05;;;;;;;;;;4363689;32;20670;-54
2021/09/15 12:39:50;;;;;;;1.35;0.50;;;;;;;;;;4365574;32;21717;-54
2021/09/15 12:42:23;;;;;;;3.00;0.50;;;;;;;;;;4363039;32;20105;-54
2021/09/15 12:45:03;;;;;;;1.65;0.40;;;;;;;;;;4365635;32;20063;-54
2021/09/15 12:47:45;;;;;;;1.30;0.43;;;;;;;;;;4364896;32;20087;-55
2021/09/15 12:50:18;;;;;;;1.42;0.60;;;;;;;;;;4365157;32;20113;-55
2021/09/15 12:52:48;;;;;;;16.80;1.10;;;;;;;;;;4360501;32;20129;-54
2021/09/15 12:55:26;;;;;;;3.05;0.50;;;;;;;;;;4357132;32;20099;-55
2021/09/15 12:57:58;;;;;;;1.23;0.45;;;;;;;;;;4362118;32;20129;-55
2021/09/15 13:00:32;;;;;;;2.50;0.70;;;;;;;;;;4363791;32;20531;-55
2021/09/15 13:03:06;;;;;;;2.45;0.60;;;;;;;;;;4366425;32;20070;-55
2021/09/15 13:05:41;;;;;;;2.90;0.52;;;;;;;;;;4365481;32;20062;-54
2021/09/15 13:08:27;;;;;;;3.70;0.80;;;;;;;;;;4366293;32;20068;-54
2021/09/15 13:10:57;;;;;;;1.85;0.52;;;;;;;;;;4367015;32;20051;-54
2021/09/15 13:13:26;;;;;;;1.60;0.50;;;;;;;;;;4366882;32;20665;-54
2021/09/15 13:15:55;;;;;;;2.47;0.55;;;;;;;;;;4364204;32;20067;-54
2021/09/15 13:18:24;;;;;;;3.50;0.70;;;;;;;;;;4365536;32;20117;-54
2021/09/15 13:20:52;;;;;;;2.15;0.52;;;;;;;;;;4368396;32;20085;-54
2021/09/15 13:23:21;;;;;;;2.08;0.50;;;;;;;;;;4368066;32;20491;-55
2021/09/15 13:25:49;;;;;;;2.85;0.52;;;;;;;;;;4367467;32;20074;-55
2021/09/15 13:28:17;;;;;;;2.00;0.60;;;;;;;;;;4366204;32;20594;-54
2021/09/15 13:30:46;;;;;;;5.35;0.80;;;;;;;;;;4366977;32;20083;-54
2021/09/15 13:33:14;;;;;;;8.90;0.88;;;;;;;;;;4368003;32;20426;-55
2021/09/15 13:35:43;;;;;;;3.97;0.55;;;;;;;;;;4367750;32;20122;-54
2021/09/15 13:38:11;;;;;;;3.28;0.70;;;;;;;;;;4367607;32;20090;-54
2021/09/15 13:40:39;;;;;;;1.95;0.45;;;;;;;;;;4366626;32;20051;-54
2021/09/15 13:43:08;;;;;;;2.42;0.68;;;;;;;;;;4367577;32;20145;-55
2021/09/15 13:45:36;;;;;;;4.03;0.60;;;;;;;;;;4367055;32;20206;-54
2021/09/15 13:48:05;;;;;;;2.40;0.60;;;;;;;;;;4367580;32;20051;-55
2021/09/15 13:50:34;;;;;;;2.05;0.50;;;;;;;;;;4366863;32;20118;-55
2021/09/15 13:53:02;;;;;;;6.93;0.73;;;;;;;;;;4366833;32;20043;-54
2021/09/15 13:55:30;;;;;;;1.42;0.30;;;;;;;;;;4368855;32;20094;-54
2021/09/15 13:57:59;;;;;;;2.80;0.45;;;;;;;;;;4366806;32;20079;-55
2021/09/15 14:00:31;;;;;;;2.33;0.55;;;;;;;;;;4366252;32;20132;-54
2021/09/15 14:03:00;;;;;;;3.28;0.57;;;;;;;;;;4363812;32;20067;-54
2021/09/15 14:05:29;;;;;;;1.55;0.35;;;;;;;;;;4366755;32;20095;-55
2021/09/15 14:07:58;;;;;;;2.75;0.68;;;;;;;;;;4364271;32;20083;-55
2021/09/15 14:10:26;;;;;;;1.55;0.40;;;;;;;;;;4363750;32;20090;-54
2021/09/15 14:12:56;;;;;;;1.67;0.43;;;;;;;;;;4362414;32;20125;-54
2021/09/15 14:15:26;;;;;;;2.20;0.40;;;;;;;;;;4365206;32;20116;-54
2021/09/15 14:17:55;;;;;;;1.60;0.40;;;;;;;;;;4363613;32;20067;-54
2021/09/15 14:20:23;;;;;;;1.73;0.50;;;;;;;;;;4366592;32;20074;-57
2021/09/15 14:22:51;;;;;;;2.67;0.30;;;;;;;;;;4364604;32;20186;-57
2021/09/15 14:25:20;;;;;;;2.00;0.32;;;;;;;;;;4368676;32;20097;-54
2021/09/15 14:27:48;;;;;;;0.98;0.30;;;;;;;;;;4365212;32;20056;-55
2021/09/15 14:30:17;;;;;;;1.35;0.47;;;;;;;;;;4365001;32;20193;-54
2021/09/15 14:32:46;;;;;;;2.65;0.50;;;;;;;;;;4369563;32;20430;-54
2021/09/15 14:35:15;;;;;;;5.55;0.70;;;;;;;;;;4368055;32;20109;-54
2021/09/15 14:37:43;;;;;;;2.45;0.45;;;;;;;;;;4366897;32;20071;-57
2021/09/15 14:40:13;;;;;;;1.77;0.60;;;;;;;;;;4367493;32;20051;-55